createdAt,value
2024-03-01T00:00:33.606Z,811.00
2024-03-01T00:01:33.617Z,821.00
2024-03-01T00:02:33.582Z,815.00
2024-03-01T00:03:33.591Z,822.00
2024-03-01T00:04:33.663Z,813.00
2024-03-01T00:05:33.604Z,808.00
2024-03-01T00:06:33.634Z,819.00
2024-03-01T00:07:33.671Z,820.00
2024-03-01T00:08:33.638Z,822.00
2024-03-01T00:09:33.784Z,820.00
2024-03-01T00:10:33.761Z,812.00
2024-03-01T00:11:33.694Z,818.00
2024-03-01T00:12:33.704Z,820.00
2024-03-01T00:13:33.780Z,813.00
2024-03-01T00:14:33.699Z,817.00
2024-03-01T00:15:33.725Z,819.00
2024-03-01T00:16:33.755Z,818.00
2024-03-01T00:17:33.735Z,808.00
2024-03-01T00:18:33.833Z,813.00
2024-03-01T00:19:33.802Z,804.00
2024-03-01T00:20:33.822Z,798.00
2024-03-01T00:21:33.779Z,801.00
2024-03-01T00:22:33.861Z,799.00
2024-03-01T00:23:33.781Z,800.00
2024-03-01T00:24:33.803Z,805.00
2024-03-01T00:25:33.872Z,797.00
2024-03-01T00:26:33.819Z,786.00
2024-03-01T00:27:33.822Z,790.00
2024-03-01T00:28:33.852Z,785.00
2024-03-01T00:29:33.858Z,781.00
2024-03-01T00:30:33.864Z,787.00
2024-03-01T00:31:33.921Z,776.00
2024-03-01T00:32:33.964Z,771.00
2024-03-01T00:33:33.895Z,771.00
2024-03-01T00:34:34.086Z,772.00
2024-03-01T00:35:33.934Z,766.00
2024-03-01T00:36:33.946Z,765.00
2024-03-01T00:37:33.979Z,769.00
2024-03-01T00:38:33.962Z,772.00
2024-03-01T00:39:34.000Z,771.00
2024-03-01T00:40:34.044Z,773.00
2024-03-01T00:41:34.014Z,771.00
2024-03-01T00:42:34.038Z,775.00
2024-03-01T00:43:34.107Z,764.00
2024-03-01T00:44:34.067Z,773.00
2024-03-01T00:45:34.067Z,766.00
2024-03-01T00:46:34.104Z,765.00
2024-03-01T00:47:34.093Z,769.00
2024-03-01T00:48:34.098Z,769.00
2024-03-01T00:49:34.123Z,767.00
2024-03-01T00:50:34.218Z,763.00
2024-03-01T00:51:34.122Z,762.00
2024-03-01T00:52:34.184Z,759.00
2024-03-01T00:53:34.170Z,759.00
2024-03-01T00:54:34.157Z,763.00
2024-03-01T00:55:34.173Z,762.00
2024-03-01T00:56:34.183Z,757.00
2024-03-01T00:57:34.214Z,770.00
2024-03-01T00:58:34.236Z,762.00
2024-03-01T00:59:34.220Z,761.00
2024-03-01T01:00:34.226Z,750.00
2024-03-01T01:01:34.337Z,757.00
2024-03-01T01:02:40.419Z,750.00
2024-03-01T01:03:35.250Z,750.00
2024-03-01T01:04:34.302Z,750.00
2024-03-01T01:05:34.249Z,749.00
2024-03-01T01:06:34.350Z,751.00
2024-03-01T01:07:34.304Z,744.00
2024-03-01T01:08:34.273Z,743.00
2024-03-01T01:09:34.252Z,730.00
2024-03-01T01:10:34.358Z,729.00
2024-03-01T01:11:34.269Z,729.00
2024-03-01T01:12:34.329Z,731.00
2024-03-01T01:13:35.012Z,726.00
2024-03-01T01:14:34.271Z,732.00
2024-03-01T01:15:34.264Z,724.00
2024-03-01T01:16:34.297Z,723.00
2024-03-01T01:17:34.343Z,716.00
2024-03-01T01:18:34.268Z,720.00
2024-03-01T01:19:34.315Z,715.00
2024-03-01T01:20:34.270Z,700.00
2024-03-01T01:21:34.273Z,714.00
2024-03-01T01:22:34.431Z,710.00
2024-03-01T01:23:34.305Z,708.00
2024-03-01T01:24:34.266Z,703.00
2024-03-01T01:25:34.336Z,709.00
2024-03-01T01:26:34.263Z,698.00
2024-03-01T01:27:34.279Z,695.00
2024-03-01T01:28:34.325Z,696.00
2024-03-01T01:29:34.300Z,696.00
2024-03-01T01:30:34.303Z,699.00
2024-03-01T01:31:34.337Z,698.00
2024-03-01T01:32:34.366Z,693.00
2024-03-01T01:33:34.346Z,692.00
2024-03-01T01:34:34.378Z,703.00
2024-03-01T01:35:34.453Z,694.00
2024-03-01T01:36:34.369Z,690.00
2024-03-01T01:37:34.434Z,696.00
2024-03-01T01:38:34.396Z,700.00
2024-03-01T01:39:34.431Z,701.00
2024-03-01T01:40:34.543Z,699.00
2024-03-01T01:41:34.438Z,700.00
2024-03-01T01:42:34.462Z,699.00
2024-03-01T01:43:34.542Z,694.00
2024-03-01T01:44:34.486Z,692.00
2024-03-01T01:45:34.484Z,694.00
2024-03-01T01:46:34.511Z,700.00
2024-03-01T01:47:34.531Z,696.00
2024-03-01T01:48:34.531Z,691.00
2024-03-01T01:49:34.581Z,693.00
2024-03-01T01:50:34.549Z,681.00
2024-03-01T01:51:34.568Z,691.00
2024-03-01T01:52:34.648Z,683.00
2024-03-01T01:53:34.615Z,686.00
2024-03-01T01:54:34.638Z,691.00
2024-03-01T01:55:34.682Z,693.00
2024-03-01T01:56:34.615Z,698.00
2024-03-01T01:57:34.649Z,691.00
2024-03-01T01:58:34.729Z,695.00
2024-03-01T01:59:34.655Z,697.00
2024-03-01T02:00:34.692Z,680.00
2024-03-01T02:01:34.775Z,682.00
2024-03-01T02:02:34.711Z,685.00
2024-03-01T02:03:34.719Z,682.00
2024-03-01T02:04:34.740Z,681.00
2024-03-01T02:05:34.741Z,679.00
2024-03-01T02:06:34.753Z,675.00
2024-03-01T02:07:34.811Z,671.00
2024-03-01T02:08:34.758Z,675.00
2024-03-01T02:09:34.792Z,674.00
2024-03-01T02:10:34.977Z,670.00
2024-03-01T02:11:34.992Z,679.00
2024-03-01T02:12:34.816Z,673.00
2024-03-01T02:13:34.946Z,661.00
2024-03-01T02:14:34.841Z,664.00
2024-03-01T02:15:34.861Z,664.00
2024-03-01T02:16:35.075Z,664.00
2024-03-01T02:17:34.891Z,661.00
2024-03-01T02:18:34.912Z,665.00
2024-03-01T02:19:34.943Z,662.00
2024-03-01T02:20:34.916Z,660.00
2024-03-01T02:21:34.933Z,662.00
2024-03-01T02:22:35.015Z,661.00
2024-03-01T02:23:34.983Z,665.00
2024-03-01T02:24:34.982Z,660.00
2024-03-01T02:25:35.048Z,659.00
2024-03-01T02:26:35.122Z,657.00
2024-03-01T02:27:35.059Z,660.00
2024-03-01T02:28:35.074Z,659.00
2024-03-01T02:29:35.084Z,665.00
2024-03-01T02:30:35.097Z,656.00
2024-03-01T02:31:35.127Z,661.00
2024-03-01T02:32:35.167Z,663.00
2024-03-01T02:33:35.141Z,663.00
2024-03-01T02:34:35.220Z,662.00
2024-03-01T02:35:35.194Z,660.00
2024-03-01T02:36:35.202Z,660.00
2024-03-01T02:37:35.217Z,659.00
2024-03-01T02:38:35.238Z,658.00
2024-03-01T02:39:35.232Z,661.00
2024-03-01T02:40:35.331Z,659.00
2024-03-01T02:41:35.321Z,657.00
2024-03-01T02:42:35.436Z,660.00
2024-03-01T02:43:35.336Z,659.00
2024-03-01T02:44:35.317Z,656.00
2024-03-01T02:45:35.357Z,658.00
2024-03-01T02:46:35.391Z,663.00
2024-03-01T02:47:35.414Z,664.00
2024-03-01T02:48:35.407Z,660.00
2024-03-01T02:49:35.449Z,658.00
2024-03-01T02:50:35.460Z,658.00
2024-03-01T02:51:35.492Z,658.00
2024-03-01T02:52:35.472Z,656.00
2024-03-01T02:53:35.478Z,660.00
2024-03-01T02:54:35.503Z,657.00
2024-03-01T02:55:35.603Z,659.00
2024-03-01T02:56:35.517Z,655.00
2024-03-01T02:57:35.551Z,658.00
2024-03-01T02:58:35.676Z,661.00
2024-03-01T02:59:35.593Z,664.00
2024-03-01T03:00:35.629Z,663.00
2024-03-01T03:01:35.705Z,664.00
2024-03-01T03:02:35.615Z,665.00
2024-03-01T03:03:35.626Z,663.00
2024-03-01T03:04:35.678Z,664.00
2024-03-01T03:05:35.667Z,670.00
2024-03-01T03:06:35.689Z,664.00
2024-03-01T03:07:35.720Z,660.00
2024-03-01T03:08:35.747Z,675.00
2024-03-01T03:09:35.738Z,664.00
2024-03-01T03:10:35.813Z,664.00
2024-03-01T03:11:35.823Z,663.00
2024-03-01T03:12:35.801Z,665.00
2024-03-01T03:13:35.872Z,661.00
2024-03-01T03:14:35.954Z,664.00
2024-03-01T03:15:35.828Z,667.00
2024-03-01T03:16:35.901Z,659.00
2024-03-01T03:17:35.908Z,662.00
2024-03-01T03:18:35.892Z,661.00
2024-03-01T03:19:36.278Z,658.00
2024-03-01T03:20:35.922Z,662.00
2024-03-01T03:21:35.988Z,661.00
2024-03-01T03:22:36.056Z,662.00
2024-03-01T03:23:36.007Z,666.00
2024-03-01T03:24:36.008Z,667.00
2024-03-01T03:25:36.101Z,664.00
2024-03-01T03:26:36.039Z,663.00
2024-03-01T03:27:36.064Z,661.00
2024-03-01T03:28:36.162Z,660.00
2024-03-01T03:29:36.125Z,659.00
2024-03-01T03:30:36.097Z,662.00
2024-03-01T03:31:36.157Z,661.00
2024-03-01T03:32:36.170Z,664.00
2024-03-01T03:33:36.150Z,663.00
2024-03-01T03:34:36.272Z,661.00
2024-03-01T03:35:36.203Z,657.00
2024-03-01T03:36:36.208Z,661.00
2024-03-01T03:37:36.279Z,661.00
2024-03-01T03:38:36.231Z,663.00
2024-03-01T03:39:36.251Z,666.00
2024-03-01T03:40:36.307Z,663.00
2024-03-01T03:41:36.282Z,664.00
2024-03-01T03:42:36.317Z,668.00
2024-03-01T03:43:36.384Z,664.00
2024-03-01T03:44:36.339Z,662.00
2024-03-01T03:45:36.363Z,658.00
2024-03-01T03:46:36.508Z,661.00
2024-03-01T03:47:36.427Z,661.00
2024-03-01T03:48:36.411Z,658.00
2024-03-01T03:49:36.472Z,656.00
2024-03-01T03:50:36.484Z,660.00
2024-03-01T03:51:36.466Z,656.00
2024-03-01T03:52:36.546Z,659.00
2024-03-01T03:53:36.496Z,654.00
2024-03-01T03:54:36.559Z,655.00
2024-03-01T03:55:36.741Z,652.00
2024-03-01T03:56:36.547Z,655.00
2024-03-01T03:57:36.599Z,653.00
2024-03-01T03:58:36.616Z,655.00
2024-03-01T03:59:36.632Z,654.00
2024-03-01T04:00:36.613Z,655.00
2024-03-01T04:01:36.671Z,651.00
2024-03-01T04:02:36.751Z,657.00
2024-03-01T04:03:36.657Z,658.00
2024-03-01T04:04:36.742Z,658.00
2024-03-01T04:05:36.703Z,659.00
2024-03-01T04:06:36.720Z,657.00
2024-03-01T04:07:36.853Z,653.00
2024-03-01T04:08:36.745Z,657.00
2024-03-01T04:09:36.773Z,659.00
2024-03-01T04:10:36.863Z,658.00
2024-03-01T04:11:36.856Z,658.00
2024-03-01T04:12:36.825Z,659.00
2024-03-01T04:13:37.005Z,659.00
2024-03-01T04:14:36.859Z,662.00
2024-03-01T04:15:36.877Z,660.00
2024-03-01T04:16:36.982Z,659.00
2024-03-01T04:17:36.970Z,660.00
2024-03-01T04:18:44.691Z,600.00
2024-03-01T04:19:44.771Z,600.00
2024-03-01T04:20:44.759Z,600.00
2024-03-01T04:21:44.749Z,600.00
2024-03-01T04:22:44.822Z,600.00
2024-03-01T04:23:44.854Z,603.00
2024-03-01T04:24:44.842Z,603.00
2024-03-01T04:25:44.824Z,599.00
2024-03-01T04:26:44.853Z,600.00
2024-03-01T04:27:44.839Z,602.00
2024-03-01T04:28:44.831Z,601.00
2024-03-01T04:29:44.836Z,600.00
2024-03-01T04:30:44.841Z,602.00
2024-03-01T04:31:52.043Z,600.00
2024-03-01T04:32:52.108Z,600.00
2024-03-01T04:33:52.078Z,600.00
2024-03-01T04:34:52.016Z,600.00
2024-03-01T04:35:52.033Z,600.00
2024-03-01T04:36:52.060Z,604.00
2024-03-01T04:37:52.032Z,601.00
2024-03-01T04:38:52.020Z,601.00
2024-03-01T04:39:52.040Z,603.00
2024-03-01T04:40:52.062Z,602.00
2024-03-01T04:41:52.022Z,600.00
2024-03-01T04:42:52.058Z,600.00
2024-03-01T04:43:52.015Z,604.00
2024-03-01T04:44:52.013Z,605.00
2024-03-01T04:45:52.023Z,603.00
2024-03-01T04:46:52.033Z,606.00
2024-03-01T04:47:52.074Z,606.00
2024-03-01T04:48:55.102Z,606.00
2024-03-01T04:49:52.037Z,606.00
2024-03-01T04:50:52.023Z,605.00
2024-03-01T04:51:52.114Z,604.00
2024-03-01T04:52:52.044Z,607.00
2024-03-01T04:53:52.029Z,604.00
2024-03-01T04:54:52.057Z,608.00
2024-03-01T04:55:52.039Z,607.00
2024-03-01T04:56:52.042Z,604.00
2024-03-01T04:57:52.069Z,604.00
2024-03-01T04:58:52.053Z,601.00
2024-03-01T04:59:52.063Z,603.00
2024-03-01T05:00:52.148Z,603.00
2024-03-01T05:01:52.096Z,603.00
2024-03-01T05:02:52.070Z,607.00
2024-03-01T05:03:52.096Z,607.00
2024-03-01T05:04:52.097Z,608.00
2024-03-01T05:05:52.039Z,609.00
2024-03-01T05:06:52.055Z,610.00
2024-03-01T05:07:52.050Z,617.00
2024-03-01T05:08:52.036Z,615.00
2024-03-01T05:09:52.121Z,617.00
2024-03-01T05:10:52.162Z,619.00
2024-03-01T05:11:52.078Z,622.00
2024-03-01T05:12:52.070Z,620.00
2024-03-01T05:13:52.054Z,622.00
2024-03-01T05:14:52.045Z,625.00
2024-03-01T05:15:52.113Z,626.00
2024-03-01T05:16:52.053Z,629.00
2024-03-01T05:17:52.097Z,628.00
2024-03-01T05:18:52.070Z,628.00
2024-03-01T05:19:52.047Z,631.00
2024-03-01T05:20:52.045Z,628.00
2024-03-01T05:21:52.165Z,632.00
2024-03-01T05:22:52.062Z,629.00
2024-03-01T05:23:52.068Z,635.00
2024-03-01T05:24:52.090Z,629.00
2024-03-01T05:25:52.065Z,631.00
2024-03-01T05:26:52.072Z,634.00
2024-03-01T05:27:52.194Z,631.00
2024-03-01T05:28:52.124Z,633.00
2024-03-01T05:29:52.064Z,632.00
2024-03-01T05:30:53.187Z,634.00
2024-03-01T05:31:52.133Z,637.00
2024-03-01T05:32:52.093Z,634.00
2024-03-01T05:33:52.304Z,634.00
2024-03-01T05:34:52.050Z,635.00
2024-03-01T05:35:52.065Z,637.00
2024-03-01T05:36:52.104Z,641.00
2024-03-01T05:37:52.149Z,637.00
2024-03-01T05:38:52.074Z,633.00
2024-03-01T05:39:52.090Z,632.00
2024-03-01T05:40:53.034Z,635.00
2024-03-01T05:41:52.083Z,634.00
2024-03-01T05:42:52.148Z,634.00
2024-03-01T05:43:52.066Z,635.00
2024-03-01T05:44:52.082Z,632.00
2024-03-01T05:45:52.101Z,632.00
2024-03-01T05:46:52.063Z,634.00
2024-03-01T05:47:52.115Z,628.00
2024-03-01T05:48:52.116Z,629.00
2024-03-01T05:49:52.064Z,629.00
2024-03-01T05:50:52.086Z,627.00
2024-03-01T05:51:52.107Z,628.00
2024-03-01T05:52:52.085Z,626.00
2024-03-01T05:53:52.172Z,627.00
2024-03-01T05:54:52.085Z,626.00
2024-03-01T05:55:52.092Z,625.00
2024-03-01T05:56:52.086Z,622.00
2024-03-01T05:57:52.095Z,622.00
2024-03-01T05:58:52.075Z,620.00
2024-03-01T05:59:52.087Z,617.00
2024-03-01T06:00:52.124Z,617.00
2024-03-01T06:01:52.164Z,620.00
2024-03-01T06:02:54.655Z,616.00
2024-03-01T06:03:52.135Z,617.00
2024-03-01T06:04:52.098Z,616.00
2024-03-01T06:05:52.101Z,615.00
2024-03-01T06:06:52.173Z,613.00
2024-03-01T06:07:52.092Z,614.00
2024-03-01T06:08:52.106Z,614.00
2024-03-01T06:09:52.204Z,617.00
2024-03-01T06:10:52.135Z,615.00
2024-03-01T06:11:52.131Z,614.00
2024-03-01T06:12:52.234Z,611.00
2024-03-01T06:13:52.132Z,614.00
2024-03-01T06:14:52.123Z,613.00
2024-03-01T06:15:52.131Z,616.00
2024-03-01T06:16:52.114Z,616.00
2024-03-01T06:17:52.160Z,616.00
2024-03-01T06:18:52.140Z,617.00
2024-03-01T06:19:52.132Z,618.00
2024-03-01T06:20:52.147Z,619.00
2024-03-01T06:21:52.354Z,618.00
2024-03-01T06:22:52.138Z,620.00
2024-03-01T06:23:52.136Z,619.00
2024-03-01T06:24:52.226Z,624.00
2024-03-01T06:25:52.149Z,616.00
2024-03-01T06:26:52.166Z,622.00
2024-03-01T06:27:52.217Z,621.00
2024-03-01T06:28:52.183Z,623.00
2024-03-01T06:29:52.145Z,618.00
2024-03-01T06:30:52.179Z,617.00
2024-03-01T06:31:52.142Z,622.00
2024-03-01T06:32:52.222Z,615.00
2024-03-01T06:33:52.174Z,614.00
2024-03-01T06:34:52.159Z,614.00
2024-03-01T06:35:52.161Z,618.00
2024-03-01T06:36:52.176Z,625.00
2024-03-01T06:37:52.193Z,633.00
2024-03-01T06:38:52.158Z,637.00
2024-03-01T06:39:52.253Z,649.00
2024-03-01T06:40:52.157Z,659.00
2024-03-01T06:41:52.150Z,708.00
2024-03-01T06:42:53.096Z,759.00
2024-03-01T06:43:52.153Z,787.00
2024-03-01T06:44:52.164Z,820.00
2024-03-01T06:45:52.191Z,854.00
2024-03-01T06:46:52.152Z,892.00
2024-03-01T06:47:52.256Z,932.00
2024-03-01T06:48:52.199Z,952.00
2024-03-01T06:49:52.199Z,983.00
2024-03-01T06:50:52.178Z,990.00
2024-03-01T06:51:52.241Z,1002.00
2024-03-01T06:52:52.166Z,1024.00
2024-03-01T06:53:52.185Z,1015.00
2024-03-01T06:54:52.192Z,1032.00
2024-03-01T06:55:52.202Z,1032.00
2024-03-01T06:56:52.255Z,1048.00
2024-03-01T06:57:52.324Z,1047.00
2024-03-01T06:58:52.160Z,1045.00
2024-03-01T06:59:52.160Z,1060.00
2024-03-01T07:00:52.235Z,1056.00
2024-03-01T07:01:52.255Z,1063.00
2024-03-01T07:02:52.213Z,1054.00
2024-03-01T07:03:52.248Z,1068.00
2024-03-01T07:04:52.190Z,1065.00
2024-03-01T07:05:52.178Z,1063.00
2024-03-01T07:06:52.250Z,1061.00
2024-03-01T07:07:52.219Z,1058.00
2024-03-01T07:08:52.190Z,1060.00
2024-03-01T07:09:52.320Z,1055.00
2024-03-01T07:10:52.362Z,1054.00
2024-03-01T07:11:52.236Z,1061.00
2024-03-01T07:12:52.900Z,1053.00
2024-03-01T07:13:52.311Z,1051.00
2024-03-01T07:14:52.255Z,1053.00
2024-03-01T07:15:52.324Z,1041.00
2024-03-01T07:16:52.307Z,1043.00
2024-03-01T07:17:52.345Z,1039.00
2024-03-01T07:18:52.361Z,1038.00
2024-03-01T07:19:52.309Z,1026.00
2024-03-01T07:20:52.325Z,1007.00
2024-03-01T07:21:52.424Z,1002.00
2024-03-01T07:22:52.368Z,1000.00
2024-03-01T07:23:52.374Z,998.00
2024-03-01T07:24:52.401Z,993.00
2024-03-01T07:25:52.408Z,981.00
2024-03-01T07:26:52.413Z,980.00
2024-03-01T07:27:52.514Z,971.00
2024-03-01T07:28:52.731Z,968.00
2024-03-01T07:29:52.522Z,968.00
2024-03-01T07:30:52.484Z,957.00
2024-03-01T07:31:52.492Z,960.00
2024-03-01T07:32:52.582Z,953.00
2024-03-01T07:33:52.867Z,962.00
2024-03-01T07:34:52.596Z,990.00
2024-03-01T07:35:52.629Z,982.00
2024-03-01T07:36:52.735Z,980.00
2024-03-01T07:37:52.759Z,976.00
2024-03-01T07:38:52.809Z,978.00
2024-03-01T07:39:52.936Z,966.00
2024-03-01T07:40:52.912Z,979.00
2024-03-01T07:41:52.957Z,997.00
2024-03-01T07:42:53.009Z,1023.00
2024-03-01T07:43:53.079Z,1038.00
2024-03-01T07:44:53.057Z,1043.00
2024-03-01T07:45:53.170Z,1046.00
2024-03-01T07:46:53.146Z,1062.00
2024-03-01T07:47:53.256Z,1056.00
2024-03-01T07:48:53.751Z,1068.00
2024-03-01T07:49:53.316Z,1047.00
2024-03-01T07:50:53.365Z,1046.00
2024-03-01T07:51:53.609Z,1034.00
2024-03-01T07:52:53.745Z,1036.00
2024-03-01T07:53:53.533Z,1030.00
2024-03-01T07:54:53.600Z,1012.00
2024-03-01T07:55:53.664Z,1006.00
2024-03-01T07:56:53.696Z,994.00
2024-03-01T07:57:53.885Z,994.00
2024-03-01T07:58:53.887Z,974.00
2024-03-01T07:59:53.861Z,975.00
2024-03-01T08:00:53.958Z,963.00
2024-03-01T08:01:54.082Z,958.00
2024-03-01T08:02:54.034Z,961.00
2024-03-01T08:03:55.532Z,937.00
2024-03-01T08:04:54.081Z,934.00
2024-03-01T08:05:54.072Z,927.00
2024-03-01T08:06:54.089Z,924.00
2024-03-01T08:07:54.051Z,921.00
2024-03-01T08:08:54.053Z,917.00
2024-03-01T08:09:54.109Z,906.00
2024-03-01T08:10:54.072Z,909.00
2024-03-01T08:11:54.067Z,906.00
2024-03-01T08:12:54.095Z,906.00
2024-03-01T08:13:54.086Z,898.00
2024-03-01T08:14:54.061Z,901.00
2024-03-01T08:15:54.067Z,903.00
2024-03-01T08:16:54.070Z,890.00
2024-03-01T08:17:54.085Z,893.00
2024-03-01T08:18:54.068Z,889.00
2024-03-01T08:19:54.057Z,879.00
2024-03-01T08:20:54.089Z,877.00
2024-03-01T08:21:54.113Z,882.00
2024-03-01T08:22:54.070Z,879.00
2024-03-01T08:23:54.077Z,873.00
2024-03-01T08:24:54.182Z,861.00
2024-03-01T08:25:54.074Z,864.00
2024-03-01T08:26:54.067Z,856.00
2024-03-01T08:27:54.252Z,835.00
2024-03-01T08:28:54.080Z,822.00
2024-03-01T08:29:54.083Z,801.00
2024-03-01T08:30:54.304Z,813.00
2024-03-01T08:31:54.109Z,798.00
2024-03-01T08:32:54.258Z,802.00
2024-03-01T08:33:54.190Z,792.00
2024-03-01T08:34:54.087Z,787.00
2024-03-01T08:35:54.099Z,804.00
2024-03-01T08:36:54.419Z,795.00
2024-03-01T08:37:54.248Z,797.00
2024-03-01T08:38:54.084Z,807.00
2024-03-01T08:39:54.156Z,825.00
2024-03-01T08:40:54.283Z,817.00
2024-03-01T08:41:54.089Z,841.00
2024-03-01T08:42:54.111Z,849.00
2024-03-01T08:43:54.106Z,855.00
2024-03-01T08:44:54.104Z,865.00
2024-03-01T08:45:54.129Z,862.00
2024-03-01T08:46:54.112Z,883.00
2024-03-01T08:47:54.279Z,883.00
2024-03-01T08:48:54.140Z,890.00
2024-03-01T08:49:56.880Z,903.00
2024-03-01T08:50:54.125Z,912.00
2024-03-01T08:51:54.150Z,916.00
2024-03-01T08:52:54.107Z,938.00
2024-03-01T08:53:54.101Z,931.00
2024-03-01T08:54:54.192Z,943.00
2024-03-01T08:55:54.125Z,955.00
2024-03-01T08:56:54.145Z,964.00
2024-03-01T08:57:54.161Z,977.00
2024-03-01T08:58:54.171Z,977.00
2024-03-01T08:59:54.114Z,989.00
2024-03-01T09:00:54.276Z,998.00
2024-03-01T09:01:54.247Z,1004.00
2024-03-01T09:02:54.134Z,1017.00
2024-03-01T09:03:54.148Z,1027.00
2024-03-01T09:04:54.184Z,1027.00
2024-03-01T09:05:54.210Z,1030.00
2024-03-01T09:06:54.202Z,1048.00
2024-03-01T09:07:54.133Z,1051.00
2024-03-01T09:08:54.114Z,1053.00
2024-03-01T09:09:54.167Z,1060.00
2024-03-01T09:10:54.235Z,1060.00
2024-03-01T09:11:54.123Z,1071.00
2024-03-01T09:12:54.125Z,1073.00
2024-03-01T09:13:54.112Z,1078.00
2024-03-01T09:14:54.133Z,1076.00
2024-03-01T09:15:54.145Z,1075.00
2024-03-01T09:16:54.109Z,1080.00
2024-03-01T09:17:54.141Z,1085.00
2024-03-01T09:18:54.154Z,1096.00
2024-03-01T09:19:54.128Z,1091.00
2024-03-01T09:20:54.123Z,1089.00
2024-03-01T09:21:54.253Z,1085.00
2024-03-01T09:22:54.118Z,1087.00
2024-03-01T09:23:54.141Z,1090.00
2024-03-01T09:24:54.134Z,1096.00
2024-03-01T09:25:54.179Z,1107.00
2024-03-01T09:26:54.229Z,1110.00
2024-03-01T09:27:54.333Z,1112.00
2024-03-01T09:28:54.336Z,1112.00
2024-03-01T09:29:54.400Z,1119.00
2024-03-01T09:30:54.581Z,1119.00
2024-03-01T09:31:54.499Z,1117.00
2024-03-01T09:32:54.639Z,1116.00
2024-03-01T09:33:54.713Z,1112.00
2024-03-01T09:34:54.653Z,1124.00
2024-03-01T09:35:54.719Z,1110.00
2024-03-01T09:36:54.817Z,1114.00
2024-03-01T09:37:55.321Z,1118.00
2024-03-01T09:38:54.862Z,1120.00
2024-03-01T09:39:55.743Z,1125.00
2024-03-01T09:40:54.934Z,1126.00
2024-03-01T09:41:54.995Z,1130.00
2024-03-01T09:42:55.271Z,1135.00
2024-03-01T09:43:55.020Z,1131.00
2024-03-01T09:44:55.077Z,1132.00
2024-03-01T09:45:55.183Z,1135.00
2024-03-01T09:46:55.187Z,1138.00
2024-03-01T09:47:55.318Z,1131.00
2024-03-01T09:48:55.868Z,1132.00
2024-03-01T09:49:55.339Z,1128.00
2024-03-01T09:50:55.395Z,1126.00
2024-03-01T09:51:55.521Z,1116.00
2024-03-01T09:52:55.521Z,1111.00
2024-03-01T09:53:55.854Z,1105.00
2024-03-01T09:54:55.689Z,1092.00
2024-03-01T09:55:55.745Z,1075.00
2024-03-01T09:56:55.815Z,1065.00
2024-03-01T09:57:56.022Z,1052.00
2024-03-01T09:58:55.912Z,1043.00
2024-03-01T09:59:55.958Z,1030.00
2024-03-01T10:00:56.134Z,1029.00
2024-03-01T10:01:56.121Z,1018.00
2024-03-01T10:02:56.269Z,1006.00
2024-03-01T10:03:56.251Z,999.00
2024-03-01T10:04:56.447Z,997.00
2024-03-01T10:05:59.564Z,982.00
2024-03-01T10:06:57.388Z,982.00
2024-03-01T10:07:56.344Z,975.00
2024-03-01T10:08:56.352Z,973.00
2024-03-01T10:09:56.472Z,959.00
2024-03-01T10:10:56.404Z,953.00
2024-03-01T10:11:56.347Z,955.00
2024-03-01T10:12:56.450Z,953.00
2024-03-01T10:13:56.380Z,947.00
2024-03-01T10:14:56.453Z,944.00
2024-03-01T10:15:56.554Z,940.00
2024-03-01T10:16:56.576Z,942.00
2024-03-01T10:17:56.866Z,940.00
2024-03-01T10:18:56.740Z,940.00
2024-03-01T10:19:56.791Z,937.00
2024-03-01T10:20:56.850Z,936.00
2024-03-01T10:21:56.964Z,931.00
2024-03-01T10:22:57.005Z,930.00
2024-03-01T10:23:57.040Z,926.00
2024-03-01T10:24:57.205Z,925.00
2024-03-01T10:25:57.299Z,924.00
2024-03-01T10:26:57.249Z,906.00
2024-03-01T10:27:57.792Z,883.00
2024-03-01T10:28:57.368Z,874.00
2024-03-01T10:29:57.462Z,863.00
2024-03-01T10:30:57.567Z,867.00
2024-03-01T10:31:57.566Z,871.00
2024-03-01T10:32:57.814Z,883.00
2024-03-01T10:33:58.776Z,901.00
2024-03-01T10:34:57.736Z,918.00
2024-03-01T10:35:57.769Z,921.00
2024-03-01T10:36:57.836Z,930.00
2024-03-01T10:37:58.300Z,937.00
2024-03-01T10:38:57.886Z,953.00
2024-03-01T10:39:57.919Z,960.00
2024-03-01T10:40:57.981Z,970.00
2024-03-01T10:41:58.033Z,984.00
2024-03-01T10:42:58.304Z,1012.00
2024-03-01T10:43:58.022Z,1016.00
2024-03-01T10:44:58.051Z,1018.00
2024-03-01T10:45:58.061Z,1032.00
2024-03-01T10:46:58.060Z,1051.00
2024-03-01T10:47:58.113Z,1055.00
2024-03-01T10:48:58.097Z,1067.00
2024-03-01T10:49:58.108Z,1078.00
2024-03-01T10:50:58.212Z,1097.00
2024-03-01T10:51:58.175Z,1115.00
2024-03-01T10:52:58.172Z,1137.00
2024-03-01T10:53:58.170Z,1152.00
2024-03-01T10:54:58.228Z,1161.00
2024-03-01T10:55:58.237Z,1171.00
2024-03-01T10:56:58.305Z,1173.00
2024-03-01T10:57:58.424Z,1184.00
2024-03-01T10:58:58.313Z,1191.00
2024-03-01T10:59:58.360Z,1201.00
2024-03-01T11:00:58.576Z,1206.00
2024-03-01T11:01:58.553Z,1212.00
2024-03-01T11:02:58.473Z,1218.00
2024-03-01T11:03:58.470Z,1230.00
2024-03-01T11:04:58.609Z,1224.00
2024-03-01T11:05:58.571Z,1229.00
2024-03-01T11:06:58.630Z,1230.00
2024-03-01T11:07:58.813Z,1235.00
2024-03-01T11:08:58.647Z,1252.00
2024-03-01T11:09:58.786Z,1277.00
2024-03-01T11:10:58.843Z,1283.00
2024-03-01T11:11:58.725Z,1284.00
2024-03-01T11:12:58.791Z,1290.00
2024-03-01T11:13:58.827Z,1278.00
2024-03-01T11:14:58.822Z,1285.00
2024-03-01T11:15:58.879Z,1287.00
2024-03-01T11:16:58.858Z,1295.00
2024-03-01T11:17:58.977Z,1293.00
2024-03-01T11:18:58.879Z,1293.00
2024-03-01T11:19:58.916Z,1296.00
2024-03-01T11:20:58.928Z,1285.00
2024-03-01T11:21:58.930Z,1284.00
2024-03-01T11:22:59.312Z,1286.00
2024-03-01T11:23:59.058Z,1291.00
2024-03-01T11:24:59.081Z,1305.00
2024-03-01T11:25:59.071Z,1314.00
2024-03-01T11:26:59.066Z,1318.00
2024-03-01T11:27:59.378Z,1319.00
2024-03-01T11:28:59.116Z,1318.00
2024-03-01T11:29:59.131Z,1315.00
2024-03-01T11:30:59.196Z,1335.00
2024-03-01T11:31:59.179Z,1344.00
2024-03-01T11:32:59.350Z,1339.00
2024-03-01T11:33:59.247Z,1342.00
2024-03-01T11:34:59.301Z,1353.00
2024-03-01T11:35:59.308Z,1346.00
2024-03-01T11:36:59.354Z,1342.00
2024-03-01T11:37:59.819Z,1338.00
2024-03-01T11:38:59.344Z,1319.00
2024-03-01T11:39:59.372Z,1328.00
2024-03-01T11:40:59.367Z,1338.00
2024-03-01T11:41:59.371Z,1309.00
2024-03-01T11:42:59.465Z,1322.00
2024-03-01T11:43:59.457Z,1306.00
2024-03-01T11:44:59.461Z,1309.00
2024-03-01T11:45:59.524Z,1288.00
2024-03-01T11:46:59.535Z,1293.00
2024-03-01T11:47:59.599Z,1300.00
2024-03-01T11:48:59.634Z,1278.00
2024-03-01T11:49:59.626Z,1269.00
2024-03-01T11:50:59.681Z,1301.00
2024-03-01T11:51:59.765Z,1276.00
2024-03-01T11:52:59.782Z,1301.00
2024-03-01T11:53:59.769Z,1304.00
2024-03-01T11:54:59.818Z,1284.00
2024-03-01T11:55:59.830Z,1280.00
2024-03-01T11:56:59.881Z,1262.00
2024-03-01T11:57:59.924Z,1264.00
2024-03-01T11:58:59.896Z,1268.00
2024-03-01T11:59:59.959Z,1265.00
2024-03-01T12:01:00.094Z,1260.00
2024-03-01T12:02:00.183Z,1249.00
2024-03-01T12:03:00.123Z,1238.00
2024-03-01T12:04:00.286Z,1238.00
2024-03-01T12:05:03.614Z,1248.00
2024-03-01T12:06:00.225Z,1248.00
2024-03-01T12:07:00.246Z,1217.00
2024-03-01T12:08:01.289Z,1225.00
2024-03-01T12:09:00.259Z,1257.00
2024-03-01T12:10:00.320Z,1265.00
2024-03-01T12:11:00.374Z,1274.00
2024-03-01T12:12:00.244Z,1270.00
2024-03-01T12:13:00.372Z,1218.00
2024-03-01T12:14:00.564Z,1223.00
2024-03-01T12:15:00.304Z,1197.00
2024-03-01T12:16:00.376Z,1191.00
2024-03-01T12:17:00.245Z,1165.00
2024-03-01T12:18:00.360Z,1163.00
2024-03-01T12:19:00.331Z,1155.00
2024-03-01T12:20:00.455Z,1146.00
2024-03-01T12:21:00.249Z,1136.00
2024-03-01T12:22:00.584Z,1120.00